Terminal Aerodrome Forecast
Issued by NWS

Home | Current Version | Previous Version | Text Only | Print | Product List | Glossary On
Versions: 1 2 3 4 5 6 7 8 9 10 11 12 13 14 15 16 17 18 19 20 21 22 23 24 25 26 27 28
000
FTUS43 KSGF 261000 AAB
TAFJLN
TAF AMD
KJLN 261001Z 2610/2706 21010KT P6SM BKN015 OVC100
     FM261500 24010KT P6SM FEW025
     FM270000 20006KT P6SM SCT120=

USA.gov is the U.S. government's official web portal to all federal, state and local government web resources and services.